Time;durP1;ratioP1;P1;durP2;ratioP2;P2;SDS_P1;SDS_P2;PMS_P1;PMS_P2;Temp;Humidity;BMP_temperature;BMP_pressure;BME280_temperature;BME280_humidity;BME280_pressure;Samples;Min_cycle;Max_cycle;Signal;HPM_P1;HPM_P2
2022/04/12 00:01:47;;;;;;;;;;;5.80;99.90;;;;;;5075331;28;19908;-42
2022/04/12 00:04:12;;;;;;;;;;;5.80;99.90;;;;;;5075527;28;19942;-42
2022/04/12 00:06:38;;;;;;;;;;;5.80;99.90;;;;;;5074846;28;20370;-41
2022/04/12 00:09:03;;;;;;;;;;;5.70;99.90;;;;;;5090660;28;19950;-41
2022/04/12 00:11:29;;;;;;;;;;;5.70;99.90;;;;;;5074633;28;19928;-41
2022/04/12 00:13:54;;;;;;;;;;;5.70;99.90;;;;;;5074590;28;19915;-42
2022/04/12 00:16:20;;;;;;;;;;;5.60;99.90;;;;;;5074981;28;19908;-41
2022/04/12 00:19:03;;;;;;;;;;;5.60;99.90;;;;;;5074951;28;19908;-40
2022/04/12 00:21:30;;;;;;;;;;;5.60;99.90;;;;;;5074939;28;20303;-41
2022/04/12 00:23:55;;;;;;;;;;;5.60;99.90;;;;;;5075095;28;20262;-40
2022/04/12 00:26:21;;;;;;;;;;;5.60;99.90;;;;;;5074673;28;19908;-41
2022/04/12 00:28:46;;;;;;;;;;;5.60;99.90;;;;;;5074377;28;19916;-41
2022/04/12 00:31:12;;;;;;;;;;;5.60;99.90;;;;;;5074356;28;20337;-41
2022/04/12 00:33:37;;;;;;;;;;;5.60;99.90;;;;;;5074863;28;19943;-40
2022/04/12 00:36:04;;;;;;;;;;;5.60;99.90;;;;;;5074610;28;19959;-41
2022/04/12 00:38:33;;;;;;;;;;;5.60;99.90;;;;;;5074469;28;19908;-41
2022/04/12 00:40:59;;;;;;;;;;;5.50;99.90;;;;;;5074497;28;20335;-41
2022/04/12 00:43:29;;;;;;;;;;;5.50;99.90;;;;;;5074449;28;19915;-42
2022/04/12 00:46:00;;;;;;;;;;;5.50;99.90;;;;;;5074442;28;19915;-41
2022/04/12 00:48:32;;;;;;;;;;;5.50;99.90;;;;;;5074010;28;19913;-41
2022/04/12 00:50:58;;;;;;;;;;;5.50;99.90;;;;;;5074335;28;19920;-41
2022/04/12 00:53:24;;;;;;;;;;;5.50;99.90;;;;;;5074319;28;19909;-42
2022/04/12 00:55:50;;;;;;;;;;;5.50;99.90;;;;;;5074053;28;20378;-41
2022/04/12 00:58:16;;;;;;;;;;;5.60;99.90;;;;;;5074206;28;19915;-40
2022/04/12 01:00:41;;;;;;;;;;;5.60;99.90;;;;;;5073974;28;20343;-41
2022/04/12 01:03:07;;;;;;;;;;;5.60;99.90;;;;;;5074188;28;19998;-42
2022/04/12 01:05:34;;;;;;;;;;;5.60;99.90;;;;;;5074074;28;19908;-41
2022/04/12 01:08:00;;;;;;;;;;;5.60;99.90;;;;;;5073408;28;19908;-41
2022/04/12 01:10:26;;;;;;;;;;;5.60;99.90;;;;;;5074052;28;20546;-41
2022/04/12 01:12:52;;;;;;;;;;;5.50;99.90;;;;;;5073983;28;20007;-41
2022/04/12 01:15:19;;;;;;;;;;;5.50;99.90;;;;;;5073592;28;19919;-41
2022/04/12 01:17:45;;;;;;;;;;;5.40;99.90;;;;;;5074122;28;19908;-42
2022/04/12 01:20:11;;;;;;;;;;;5.40;99.90;;;;;;5074049;28;19915;-41
2022/04/12 01:22:42;;;;;;;;;;;5.40;99.90;;;;;;5073735;28;20004;-41
2022/04/12 01:25:08;;;;;;;;;;;5.30;99.90;;;;;;5074453;28;19908;-41
2022/04/12 01:27:33;;;;;;;;;;;5.20;99.90;;;;;;5074318;28;20336;-42
2022/04/12 01:29:59;;;;;;;;;;;5.20;99.90;;;;;;5106367;28;19909;-42
2022/04/12 01:32:25;;;;;;;;;;;5.20;99.90;;;;;;5073655;28;19921;-41
2022/04/12 01:34:50;;;;;;;;;;;5.00;99.90;;;;;;5073780;28;19955;-42
2022/04/12 01:37:16;;;;;;;;;;;5.00;99.90;;;;;;5073422;28;20362;-41
2022/04/12 01:39:41;;;;;;;;;;;5.00;99.90;;;;;;5073579;28;20011;-40
2022/04/12 01:42:07;;;;;;;;;;;5.00;99.90;;;;;;5073619;28;19909;-41
2022/04/12 01:44:33;;;;;;;;;;;4.90;99.90;;;;;;5073780;28;19909;-42
2022/04/12 01:46:58;;;;;;;;;;;4.90;99.90;;;;;;5073547;28;19908;-40
2022/04/12 01:49:24;;;;;;;;;;;4.90;99.90;;;;;;5073743;28;19909;-41
2022/04/12 01:51:49;;;;;;;;;;;4.80;99.90;;;;;;5073703;28;19917;-41
2022/04/12 01:54:15;;;;;;;;;;;4.80;99.90;;;;;;5073517;28;19924;-41
2022/04/12 01:56:40;;;;;;;;;;;4.80;99.90;;;;;;5073615;28;20011;-41
2022/04/12 01:59:06;;;;;;;;;;;4.80;99.90;;;;;;5105949;28;20345;-41
2022/04/12 02:01:31;;;;;;;;;;;4.80;99.90;;;;;;5073173;28;19999;-41
2022/04/12 02:03:57;;;;;;;;;;;4.80;99.90;;;;;;5073477;28;20008;-43
2022/04/12 02:06:22;;;;;;;;;;;4.70;99.90;;;;;;5073125;28;19909;-41
2022/04/12 02:08:48;;;;;;;;;;;4.70;99.90;;;;;;5073175;28;20322;-41
2022/04/12 02:11:14;;;;;;;;;;;4.70;99.90;;;;;;5073077;28;19912;-41
2022/04/12 02:13:39;;;;;;;;;;;4.70;99.90;;;;;;5073532;28;19919;-40
2022/04/12 02:16:05;;;;;;;;;;;4.60;99.90;;;;;;5073175;28;19909;-40
2022/04/12 02:18:30;;;;;;;;;;;4.70;99.90;;;;;;5074377;28;19936;-41
2022/04/12 02:20:56;;;;;;;;;;;4.70;99.90;;;;;;5077291;28;20009;-41
2022/04/12 02:23:22;;;;;;;;;;;4.70;99.90;;;;;;5076770;28;19915;-41
2022/04/12 02:25:48;;;;;;;;;;;4.70;99.90;;;;;;5077131;28;19915;-41
2022/04/12 02:28:14;;;;;;;;;;;4.60;99.90;;;;;;5076832;28;19909;-41
2022/04/12 02:30:40;;;;;;;;;;;4.60;99.90;;;;;;5077128;28;20244;-41
2022/04/12 02:33:05;;;;;;;;;;;4.60;99.90;;;;;;5076750;28;20011;-40
2022/04/12 02:35:31;;;;;;;;;;;4.50;99.90;;;;;;5076964;28;19909;-41
2022/04/12 02:37:57;;;;;;;;;;;4.50;99.90;;;;;;5076700;28;20332;-42
2022/04/12 02:40:22;;;;;;;;;;;4.50;99.90;;;;;;5076518;28;19955;-41
2022/04/12 02:42:48;;;;;;;;;;;4.50;99.90;;;;;;5076881;28;20342;-41
2022/04/12 02:45:13;;;;;;;;;;;4.50;99.90;;;;;;5076476;28;19961;-41
2022/04/12 02:47:39;;;;;;;;;;;4.50;99.90;;;;;;5076801;28;19909;-41
2022/04/12 02:50:05;;;;;;;;;;;4.50;99.90;;;;;;5076675;28;20316;-41
2022/04/12 02:52:31;;;;;;;;;;;4.50;99.90;;;;;;5076236;28;19924;-41
2022/04/12 02:54:56;;;;;;;;;;;4.40;99.90;;;;;;5076173;28;19912;-41
2022/04/12 02:57:22;;;;;;;;;;;4.40;99.90;;;;;;5076026;28;20433;-41
2022/04/12 02:59:47;;;;;;;;;;;4.40;99.90;;;;;;5076718;28;19962;-41
2022/04/12 03:02:13;;;;;;;;;;;4.40;99.90;;;;;;5076130;28;19908;-42
2022/04/12 03:04:40;;;;;;;;;;;4.40;99.90;;;;;;5076440;28;19908;-42
2022/04/12 03:07:06;;;;;;;;;;;4.40;99.90;;;;;;5075974;28;19955;-41
2022/04/12 03:09:31;;;;;;;;;;;4.30;99.90;;;;;;5076133;28;19908;-41
2022/04/12 03:11:57;;;;;;;;;;;4.30;99.90;;;;;;5076145;28;19939;-42
2022/04/12 03:14:22;;;;;;;;;;;4.40;99.90;;;;;;5075869;28;19912;-40
2022/04/12 03:16:48;;;;;;;;;;;4.30;99.90;;;;;;5075865;28;19909;-40
2022/04/12 03:19:13;;;;;;;;;;;4.40;99.90;;;;;;5076198;28;20347;-41
2022/04/12 03:21:39;;;;;;;;;;;4.30;99.90;;;;;;5075973;28;19916;-41
2022/04/12 03:24:05;;;;;;;;;;;4.30;99.90;;;;;;5075691;28;19908;-41
2022/04/12 03:26:30;;;;;;;;;;;4.30;99.90;;;;;;5075872;28;19916;-42
2022/04/12 03:28:56;;;;;;;;;;;4.40;99.90;;;;;;5075125;28;20283;-41
2022/04/12 03:31:22;;;;;;;;;;;4.40;99.90;;;;;;5075568;28;19916;-41
2022/04/12 03:33:47;;;;;;;;;;;4.30;99.90;;;;;;5075824;28;19955;-41
2022/04/12 03:36:13;;;;;;;;;;;4.20;99.90;;;;;;5075868;28;20009;-41
2022/04/12 03:38:48;;;;;;;;;;;4.20;99.90;;;;;;5075770;28;19985;-42
2022/04/12 03:41:23;;;;;;;;;;;4.20;99.90;;;;;;5075715;28;19908;-41
2022/04/12 03:43:50;;;;;;;;;;;4.20;99.90;;;;;;5075510;28;19909;-41
2022/04/12 03:46:16;;;;;;;;;;;4.20;99.90;;;;;;5075425;28;19916;-41
2022/04/12 03:48:41;;;;;;;;;;;4.20;99.90;;;;;;5075905;28;20270;-41
2022/04/12 03:51:07;;;;;;;;;;;4.20;99.90;;;;;;5075349;28;19964;-41
2022/04/12 03:53:32;;;;;;;;;;;4.10;99.90;;;;;;5074981;28;19984;-41
2022/04/12 03:55:58;;;;;;;;;;;4.10;99.90;;;;;;5074997;28;19951;-40
2022/04/12 03:58:23;;;;;;;;;;;4.10;99.90;;;;;;5074957;28;19915;-42
2022/04/12 04:00:49;;;;;;;;;;;4.10;99.90;;;;;;5073813;28;19908;-41
2022/04/12 04:03:15;;;;;;;;;;;4.10;99.90;;;;;;5074695;28;19912;-41
2022/04/12 04:05:41;;;;;;;;;;;4.10;99.90;;;;;;5075254;28;19908;-42
2022/04/12 04:08:06;;;;;;;;;;;4.10;99.90;;;;;;5074941;28;19965;-41
2022/04/12 04:10:32;;;;;;;;;;;4.20;99.90;;;;;;5073458;28;20066;-42
2022/04/12 04:12:57;;;;;;;;;;;4.20;99.90;;;;;;5074564;28;19999;-41
2022/04/12 04:15:23;;;;;;;;;;;4.10;99.90;;;;;;5074796;28;19908;-41
2022/04/12 04:17:48;;;;;;;;;;;4.10;99.90;;;;;;5074494;28;19915;-41
2022/04/12 04:20:15;;;;;;;;;;;4.10;99.90;;;;;;5074536;28;19909;-42
2022/04/12 04:22:41;;;;;;;;;;;4.10;99.90;;;;;;5074846;28;19932;-41
2022/04/12 04:25:11;;;;;;;;;;;4.00;99.90;;;;;;5074653;28;20219;-41
2022/04/12 04:27:36;;;;;;;;;;;4.00;99.90;;;;;;5074697;28;20358;-41
2022/04/12 04:30:03;;;;;;;;;;;4.00;99.90;;;;;;5074670;28;19915;-41
2022/04/12 04:32:29;;;;;;;;;;;4.00;99.90;;;;;;5074230;28;19964;-42
2022/04/12 04:34:54;;;;;;;;;;;4.00;99.90;;;;;;5074162;28;19940;-42
2022/04/12 04:37:20;;;;;;;;;;;4.00;99.90;;;;;;5074591;28;19909;-41
2022/04/12 04:39:46;;;;;;;;;;;4.00;99.90;;;;;;5089943;28;19909;-41
2022/04/12 04:42:11;;;;;;;;;;;4.00;99.90;;;;;;5073166;28;19999;-43
2022/04/12 04:44:37;;;;;;;;;;;4.00;99.90;;;;;;5073794;28;20330;-42
2022/04/12 04:47:02;;;;;;;;;;;4.10;99.90;;;;;;5089594;28;19909;-42
2022/04/12 04:49:28;;;;;;;;;;;4.10;99.90;;;;;;5074064;28;20359;-42
2022/04/12 04:51:53;;;;;;;;;;;4.10;99.90;;;;;;5073695;28;19962;-42
2022/04/12 04:54:19;;;;;;;;;;;4.20;99.90;;;;;;5074171;28;19912;-41
2022/04/12 04:56:44;;;;;;;;;;;4.20;99.90;;;;;;5073764;28;20374;-41
2022/04/12 04:59:13;;;;;;;;;;;4.30;99.90;;;;;;5073943;28;19916;-41
2022/04/12 05:01:38;;;;;;;;;;;4.40;99.90;;;;;;5073839;28;19909;-41
2022/04/12 05:04:04;;;;;;;;;;;4.50;99.90;;;;;;5074016;28;20053;-42
2022/04/12 05:06:29;;;;;;;;;;;4.50;99.90;;;;;;5074060;28;20348;-41
2022/04/12 05:08:55;;;;;;;;;;;4.70;99.90;;;;;;5073670;28;19915;-40
2022/04/12 05:11:20;;;;;;;;;;;4.80;99.90;;;;;;5073814;28;20011;-40
2022/04/12 05:13:46;;;;;;;;;;;4.90;99.90;;;;;;5073761;28;19916;-40
2022/04/12 05:16:12;;;;;;;;;;;5.00;99.90;;;;;;5073399;28;19969;-42
2022/04/12 05:18:37;;;;;;;;;;;5.10;99.90;;;;;;5073490;28;20248;-41
2022/04/12 05:21:03;;;;;;;;;;;5.10;99.90;;;;;;5072974;28;19916;-41
2022/04/12 05:23:28;;;;;;;;;;;5.10;99.90;;;;;;5073232;28;19938;-41
2022/04/12 05:25:54;;;;;;;;;;;5.20;99.90;;;;;;5073337;28;19909;-41
2022/04/12 05:28:23;;;;;;;;;;;5.30;99.90;;;;;;5073620;28;19948;-42
2022/04/12 05:30:48;;;;;;;;;;;5.40;99.90;;;;;;5073837;28;19912;-41
2022/04/12 05:33:14;;;;;;;;;;;5.40;99.90;;;;;;5073665;28;19970;-41
2022/04/12 05:35:39;;;;;;;;;;;5.40;99.90;;;;;;5073461;28;19995;-41
2022/04/12 05:38:06;;;;;;;;;;;5.50;99.90;;;;;;5073002;28;19908;-42
2022/04/12 05:40:32;;;;;;;;;;;5.60;99.90;;;;;;5072972;28;19913;-41
2022/04/12 05:42:58;;;;;;;;;;;5.70;99.90;;;;;;5073176;28;19915;-41
2022/04/12 05:45:23;;;;;;;;;;;5.70;99.90;;;;;;5073234;28;19909;-41
2022/04/12 05:47:50;;;;;;;;;;;5.80;99.90;;;;;;5072795;28;20412;-41
2022/04/12 05:50:16;;;;;;;;;;;5.80;99.90;;;;;;5073199;28;19908;-41
2022/04/12 05:52:42;;;;;;;;;;;5.90;99.90;;;;;;5074460;28;19921;-42
2022/04/12 05:55:09;;;;;;;;;;;6.00;99.90;;;;;;5077233;28;19941;-42
2022/04/12 05:57:35;;;;;;;;;;;6.10;99.90;;;;;;5077080;28;19915;-42
2022/04/12 06:00:00;;;;;;;;;;;6.20;99.90;;;;;;5076917;28;20331;-41
2022/04/12 06:02:26;;;;;;;;;;;6.30;99.90;;;;;;5076668;28;19947;-41
2022/04/12 06:04:51;;;;;;;;;;;6.40;99.90;;;;;;5077076;28;20006;-41
2022/04/12 06:07:17;;;;;;;;;;;6.40;99.90;;;;;;5076580;28;19912;-41
2022/04/12 06:09:42;;;;;;;;;;;6.50;99.90;;;;;;5076614;28;19954;-41
2022/04/12 06:12:08;;;;;;;;;;;6.50;99.90;;;;;;5076645;28;19916;-41
2022/04/12 06:14:34;;;;;;;;;;;6.60;99.90;;;;;;5076733;28;19935;-42
2022/04/12 06:16:59;;;;;;;;;;;6.70;99.90;;;;;;5076559;28;19936;-41
2022/04/12 06:19:25;;;;;;;;;;;6.70;99.90;;;;;;5076238;28;20061;-42
2022/04/12 06:21:50;;;;;;;;;;;6.80;99.90;;;;;;5076479;28;20030;-41
2022/04/12 06:24:16;;;;;;;;;;;6.90;99.90;;;;;;5076651;28;20323;-41
2022/04/12 06:26:41;;;;;;;;;;;7.00;99.90;;;;;;5076089;28;19978;-40
2022/04/12 06:29:07;;;;;;;;;;;7.10;99.90;;;;;;5075973;28;19909;-41
2022/04/12 06:31:32;;;;;;;;;;;7.20;99.90;;;;;;5076221;28;19943;-41
2022/04/12 06:33:58;;;;;;;;;;;7.30;99.90;;;;;;5076560;28;19913;-41
2022/04/12 06:36:23;;;;;;;;;;;7.40;99.90;;;;;;5076019;28;19912;-42
2022/04/12 06:38:50;;;;;;;;;;;7.50;99.90;;;;;;5076318;28;19909;-41
2022/04/12 06:41:16;;;;;;;;;;;7.70;99.90;;;;;;5076261;28;19908;-41
2022/04/12 06:43:41;;;;;;;;;;;7.80;99.90;;;;;;5076208;28;19919;-42
2022/04/12 06:46:07;;;;;;;;;;;7.80;99.90;;;;;;5076224;28;19908;-41
2022/04/12 06:48:32;;;;;;;;;;;8.00;99.90;;;;;;5076108;28;19939;-41
2022/04/12 06:50:58;;;;;;;;;;;8.20;99.90;;;;;;5075685;28;20019;-42
2022/04/12 06:53:23;;;;;;;;;;;8.60;99.90;;;;;;5075928;28;19966;-42
2022/04/12 06:55:49;;;;;;;;;;;8.70;99.90;;;;;;5075974;28;19951;-41
2022/04/12 06:58:14;;;;;;;;;;;8.80;99.90;;;;;;5075516;28;19999;-42
2022/04/12 07:00:41;;;;;;;;;;;8.90;99.90;;;;;;5075878;28;20302;-41
2022/04/12 07:03:07;;;;;;;;;;;8.90;99.90;;;;;;5075990;28;19913;-41
2022/04/12 07:05:32;;;;;;;;;;;9.00;99.90;;;;;;5075023;28;20367;-41
2022/04/12 07:07:58;;;;;;;;;;;9.10;99.90;;;;;;5075376;28;19909;-42
2022/04/12 07:10:23;;;;;;;;;;;9.20;99.90;;;;;;5075577;28;19913;-40
2022/04/12 07:12:53;;;;;;;;;;;9.20;99.90;;;;;;5075462;28;19919;-42
2022/04/12 07:15:19;;;;;;;;;;;9.30;99.90;;;;;;5075590;28;19912;-42
2022/04/12 07:17:45;;;;;;;;;;;9.30;99.90;;;;;;5074418;28;19914;-43
2022/04/12 07:20:10;;;;;;;;;;;9.40;99.90;;;;;;5075675;28;19909;-42
2022/04/12 07:22:36;;;;;;;;;;;9.50;99.90;;;;;;5075370;28;20030;-42
2022/04/12 07:25:02;;;;;;;;;;;9.50;99.90;;;;;;5075973;28;19908;-42
2022/04/12 07:27:27;;;;;;;;;;;9.60;99.90;;;;;;5075630;28;19908;-42
2022/04/12 07:29:53;;;;;;;;;;;9.70;99.90;;;;;;5075100;28;19909;-41
2022/04/12 07:32:18;;;;;;;;;;;9.90;99.90;;;;;;5075188;28;19925;-41
2022/04/12 07:34:44;;;;;;;;;;;9.90;99.90;;;;;;5075221;28;19909;-41
2022/04/12 07:37:09;;;;;;;;;;;10.00;99.90;;;;;;5075292;28;19908;-41
2022/04/12 07:39:35;;;;;;;;;;;10.20;99.90;;;;;;5075414;28;20312;-41
2022/04/12 07:42:00;;;;;;;;;;;10.30;99.90;;;;;;5074865;28;19909;-40
2022/04/12 07:44:26;;;;;;;;;;;10.40;99.90;;;;;;5075217;28;19970;-41
2022/04/12 07:46:51;;;;;;;;;;;10.70;99.90;;;;;;5074956;28;19913;-42
2022/04/12 07:49:17;;;;;;;;;;;10.70;99.90;;;;;;5074856;28;20007;-40
2022/04/12 07:51:42;;;;;;;;;;;10.70;99.90;;;;;;5075040;28;19974;-42
2022/04/12 07:54:08;;;;;;;;;;;11.00;99.90;;;;;;5074978;28;19912;-41
2022/04/12 07:56:34;;;;;;;;;;;11.20;99.90;;;;;;5074398;28;19951;-42
2022/04/12 07:59:00;;;;;;;;;;;11.30;99.90;;;;;;5074297;28;19913;-42
2022/04/12 08:01:25;;;;;;;;;;;11.50;99.90;;;;;;5074359;28;19978;-42
2022/04/12 08:03:51;;;;;;;;;;;11.70;99.90;;;;;;5074214;28;19955;-42
2022/04/12 08:06:16;;;;;;;;;;;11.80;99.90;;;;;;5074717;28;19912;-41
2022/04/12 08:08:42;;;;;;;;;;;11.90;99.90;;;;;;5074571;28;20027;-42
2022/04/12 08:11:07;;;;;;;;;;;11.80;99.90;;;;;;5074634;28;19913;-40
2022/04/12 08:13:33;;;;;;;;;;;11.90;99.90;;;;;;5074222;28;19912;-41
2022/04/12 08:15:59;;;;;;;;;;;12.00;99.90;;;;;;5074466;28;20259;-42
2022/04/12 08:18:25;;;;;;;;;;;12.00;99.90;;;;;;5074191;28;20003;-42
2022/04/12 08:20:50;;;;;;;;;;;12.00;99.90;;;;;;5074692;28;19916;-41
2022/04/12 08:23:20;;;;;;;;;;;12.20;99.90;;;;;;5074256;28;20349;-42
2022/04/12 08:25:46;;;;;;;;;;;12.30;99.90;;;;;;5074213;28;19909;-43
2022/04/12 08:28:11;;;;;;;;;;;12.40;99.90;;;;;;5072963;28;19908;-41
2022/04/12 08:30:37;;;;;;;;;;;12.70;99.90;;;;;;5074303;28;19912;-41
2022/04/12 08:33:03;;;;;;;;;;;12.80;99.90;;;;;;5074254;28;20363;-43
2022/04/12 08:35:28;;;;;;;;;;;12.70;99.90;;;;;;5073786;28;19913;-43
2022/04/12 08:37:54;;;;;;;;;;;12.90;99.90;;;;;;5073883;28;19987;-41
2022/04/12 08:40:20;;;;;;;;;;;13.00;99.90;;;;;;5074155;28;20329;-42
2022/04/12 08:42:46;;;;;;;;;;;13.30;99.90;;;;;;5074275;28;19958;-41
2022/04/12 08:45:12;;;;;;;;;;;13.70;99.90;;;;;;5074003;28;19909;-43
2022/04/12 08:47:38;;;;;;;;;;;13.80;99.20;;;;;;5073593;28;19932;-42
2022/04/12 08:50:05;;;;;;;;;;;14.00;99.60;;;;;;5073638;28;20278;-41
2022/04/12 08:52:31;;;;;;;;;;;14.30;98.90;;;;;;5073460;28;20367;-41
2022/04/12 08:54:56;;;;;;;;;;;14.40;99.10;;;;;;5073987;28;20113;-42
2022/04/12 08:57:22;;;;;;;;;;;14.60;99.00;;;;;;5073588;28;19909;-44
2022/04/12 08:59:48;;;;;;;;;;;14.80;97.70;;;;;;5073243;28;19908;-43
2022/04/12 09:02:13;;;;;;;;;;;14.50;96.90;;;;;;5073400;28;19948;-42
2022/04/12 09:04:39;;;;;;;;;;;14.70;96.40;;;;;;5073069;28;19909;-41
2022/04/12 09:07:08;;;;;;;;;;;14.70;96.20;;;;;;5072973;28;19995;-41
2022/04/12 09:09:34;;;;;;;;;;;14.60;95.50;;;;;;5073123;28;19975;-42
2022/04/12 09:12:03;;;;;;;;;;;14.90;95.90;;;;;;5073420;28;19923;-42
2022/04/12 09:14:36;;;;;;;;;;;15.10;95.90;;;;;;5073742;28;20025;-42
2022/04/12 09:17:02;;;;;;;;;;;15.30;96.00;;;;;;5073501;28;19930;-42
2022/04/12 09:19:37;;;;;;;;;;;15.30;95.80;;;;;;5073385;28;19908;-41
2022/04/12 09:22:08;;;;;;;;;;;15.10;95.90;;;;;;5073288;28;19970;-41
2022/04/12 09:24:33;;;;;;;;;;;15.20;95.90;;;;;;5073528;28;19913;-41
2022/04/12 09:26:59;;;;;;;;;;;15.30;95.90;;;;;;5072590;28;20357;-44
2022/04/12 09:29:29;;;;;;;;;;;15.30;96.10;;;;;;5073429;28;19909;-42
2022/04/12 09:31:55;;;;;;;;;;;15.30;95.50;;;;;;5072890;28;20011;-41
2022/04/12 09:34:20;;;;;;;;;;;15.60;95.30;;;;;;5073285;28;19909;-42
2022/04/12 09:36:46;;;;;;;;;;;15.90;94.90;;;;;;5073201;28;19974;-41
2022/04/12 09:39:15;;;;;;;;;;;16.10;95.00;;;;;;5072832;28;20358;-41
2022/04/12 09:41:41;;;;;;;;;;;16.20;93.30;;;;;;5073122;28;19916;-42
2022/04/12 09:44:11;;;;;;;;;;;16.20;93.50;;;;;;5072729;28;19913;-41
2022/04/12 09:46:37;;;;;;;;;;;16.30;93.70;;;;;;5073114;28;19920;-42
2022/04/12 09:49:03;;;;;;;;;;;16.00;94.00;;;;;;5072396;28;19915;-41
2022/04/12 09:51:29;;;;;;;;;;;16.40;94.10;;;;;;5072690;28;19913;-42
2022/04/12 09:53:54;;;;;;;;;;;16.30;94.00;;;;;;5072707;28;19919;-42
2022/04/12 09:56:28;;;;;;;;;;;16.20;94.30;;;;;;5072149;28;19908;-42
2022/04/12 09:58:54;;;;;;;;;;;16.10;94.20;;;;;;5072455;28;19971;-41
2022/04/12 10:01:20;;;;;;;;;;;16.40;94.20;;;;;;5073258;28;19954;-42
2022/04/12 10:03:49;;;;;;;;;;;16.60;93.50;;;;;;5073115;28;19909;-42
2022/04/12 10:06:17;;;;;;;;;;;16.60;92.60;;;;;;5072997;28;19908;-43
2022/04/12 10:08:43;;;;;;;;;;;16.80;92.40;;;;;;5072225;28;19908;-42
2022/04/12 10:11:08;;;;;;;;;;;16.80;92.20;;;;;;5072781;28;19920;-41
2022/04/12 10:13:34;;;;;;;;;;;16.90;92.00;;;;;;5072900;28;19957;-42
2022/04/12 10:15:59;;;;;;;;;;;16.90;92.20;;;;;;5072908;28;19909;-42
2022/04/12 10:18:25;;;;;;;;;;;17.20;91.70;;;;;;5072755;28;19973;-43
2022/04/12 10:20:51;;;;;;;;;;;17.70;91.00;;;;;;5072853;28;19919;-42
2022/04/12 10:23:17;;;;;;;;;;;17.70;91.20;;;;;;5072585;28;19934;-42
2022/04/12 10:25:43;;;;;;;;;;;17.80;90.70;;;;;;5072258;28;19908;-41
2022/04/12 10:28:09;;;;;;;;;;;17.70;90.50;;;;;;5072072;28;19996;-43
2022/04/12 10:30:34;;;;;;;;;;;17.60;89.80;;;;;;5071392;28;19916;-42
2022/04/12 10:33:00;;;;;;;;;;;17.40;90.00;;;;;;5072563;28;19920;-42
2022/04/12 10:35:26;;;;;;;;;;;17.50;89.00;;;;;;5088028;28;20316;-42
2022/04/12 10:37:54;;;;;;;;;;;17.80;87.90;;;;;;5070757;28;19952;-42
2022/04/12 10:40:19;;;;;;;;;;;17.90;88.10;;;;;;5073985;28;19908;-43
2022/04/12 10:42:45;;;;;;;;;;;18.10;86.60;;;;;;5076127;28;20015;-44
2022/04/12 10:45:10;;;;;;;;;;;18.20;85.80;;;;;;5076075;28;19962;-42
2022/04/12 10:47:40;;;;;;;;;;;18.30;85.70;;;;;;5075931;28;19913;-41
2022/04/12 10:50:07;;;;;;;;;;;18.50;85.60;;;;;;5075933;28;19941;-41
2022/04/12 10:52:34;;;;;;;;;;;18.50;84.80;;;;;;5074952;28;19959;-41
2022/04/12 10:55:01;;;;;;;;;;;18.50;83.90;;;;;;5076304;28;19946;-43
2022/04/12 10:57:26;;;;;;;;;;;17.70;83.90;;;;;;5075507;28;19912;-42
2022/04/12 11:00:03;;;;;;;;;;;17.60;83.50;;;;;;5075563;28;20224;-43
2022/04/12 11:02:30;;;;;;;;;;;18.00;82.80;;;;;;5076428;28;20099;-44
2022/04/12 11:04:56;;;;;;;;;;;18.20;82.40;;;;;;5075947;28;20003;-43
2022/04/12 11:07:37;;;;;;;;;;;18.50;82.50;;;;;;5075622;28;19967;-43
2022/04/12 11:10:05;;;;;;;;;;;18.50;81.90;;;;;;5074544;28;19916;-41
2022/04/12 11:12:39;;;;;;;;;;;18.40;82.20;;;;;;5075435;28;19912;-42
2022/04/12 11:15:22;;;;;;;;;;;18.40;82.30;;;;;;5076132;28;19970;-44
2022/04/12 11:17:48;;;;;;;;;;;18.60;82.30;;;;;;5075340;28;19952;-41
2022/04/12 11:20:21;;;;;;;;;;;18.80;80.20;;;;;;5075480;28;19951;-43
2022/04/12 11:22:54;;;;;;;;;;;18.80;79.40;;;;;;5075625;28;20006;-42
2022/04/12 11:25:21;;;;;;;;;;;19.00;79.40;;;;;;5075281;28;20003;-43
2022/04/12 11:27:54;;;;;;;;;;;19.20;79.50;;;;;;5075639;28;19934;-43
2022/04/12 11:30:20;;;;;;;;;;;19.00;84.80;;;;;;5075889;28;20018;-42
2022/04/12 11:32:45;;;;;;;;;;;18.90;87.60;;;;;;5075061;28;19920;-42
2022/04/12 11:35:11;;;;;;;;;;;18.50;90.30;;;;;;5073697;28;20282;-43
2022/04/12 11:37:39;;;;;;;;;;;18.70;83.30;;;;;;5074984;28;19913;-43
2022/04/12 11:40:05;;;;;;;;;;;18.90;90.20;;;;;;5075343;28;20296;-42
2022/04/12 11:42:30;;;;;;;;;;;18.90;90.30;;;;;;5075083;28;19960;-42
2022/04/12 11:44:57;;;;;;;;;;;18.90;88.50;;;;;;5074891;28;19999;-41
2022/04/12 11:47:27;;;;;;;;;;;18.80;91.00;;;;;;5074630;28;19909;-42
2022/04/12 11:49:53;;;;;;;;;;;18.60;90.70;;;;;;5074259;28;19909;-42
2022/04/12 11:52:18;;;;;;;;;;;18.20;91.10;;;;;;5074851;28;20011;-42
2022/04/12 11:54:49;;;;;;;;;;;18.40;91.30;;;;;;5074264;28;20050;-44
2022/04/12 11:57:19;;;;;;;;;;;18.50;90.30;;;;;;5074915;28;20309;-43
2022/04/12 11:59:47;;;;;;;;;;;18.90;89.30;;;;;;5074788;28;19977;-44
2022/04/12 12:02:14;;;;;;;;;;;19.10;84.30;;;;;;5074901;28;19908;-42
2022/04/12 12:04:46;;;;;;;;;;;19.20;86.30;;;;;;5074814;28;19930;-42
2022/04/12 12:07:11;;;;;;;;;;;18.90;90.00;;;;;;5074134;28;19932;-42
2022/04/12 12:09:38;;;;;;;;;;;18.90;91.00;;;;;;5073102;28;20367;-43
2022/04/12 12:12:04;;;;;;;;;;;19.10;90.70;;;;;;5074229;28;19948;-43
2022/04/12 12:14:30;;;;;;;;;;;19.00;90.10;;;;;;5074239;28;19966;-44
2022/04/12 12:17:03;;;;;;;;;;;19.20;90.40;;;;;;5073920;28;19942;-44
2022/04/12 12:19:29;;;;;;;;;;;19.30;90.70;;;;;;5073946;28;19909;-43
2022/04/12 12:21:55;;;;;;;;;;;19.30;90.60;;;;;;5074096;28;20224;-44
2022/04/12 12:24:20;;;;;;;;;;;19.30;91.30;;;;;;5072884;28;19916;-44
2022/04/12 12:26:46;;;;;;;;;;;19.40;91.40;;;;;;5073507;28;19913;-42
2022/04/12 12:29:11;;;;;;;;;;;19.70;90.90;;;;;;5073865;28;19995;-42
2022/04/12 12:31:43;;;;;;;;;;;19.60;91.10;;;;;;5074113;28;19916;-43
2022/04/12 12:34:25;;;;;;;;;;;19.40;90.80;;;;;;5073828;28;19909;-44
2022/04/12 12:36:51;;;;;;;;;;;19.40;91.30;;;;;;5074299;28;19908;-43
2022/04/12 12:39:17;;;;;;;;;;;19.60;89.60;;;;;;5073982;28;19920;-43
2022/04/12 12:41:43;;;;;;;;;;;19.70;85.00;;;;;;5074056;28;19914;-42
2022/04/12 12:44:09;;;;;;;;;;;19.70;84.20;;;;;;5073646;28;19908;-44
2022/04/12 12:46:35;;;;;;;;;;;19.80;85.40;;;;;;5073711;28;19908;-42
2022/04/12 12:49:08;;;;;;;;;;;20.00;84.40;;;;;;5073675;28;19909;-43
2022/04/12 12:51:34;;;;;;;;;;;20.20;83.40;;;;;;5073969;28;20287;-46
2022/04/12 12:54:00;;;;;;;;;;;20.40;83.20;;;;;;5073713;28;20279;-42
2022/04/12 12:56:31;;;;;;;;;;;20.60;82.40;;;;;;5073620;28;19908;-42
2022/04/12 12:59:16;;;;;;;;;;;20.60;82.90;;;;;;5073667;28;19952;-42
2022/04/12 13:01:46;;;;;;;;;;;20.30;83.30;;;;;;5073366;28;19912;-41
2022/04/12 13:04:21;;;;;;;;;;;19.90;86.40;;;;;;5073649;28;19966;-43
2022/04/12 13:06:47;;;;;;;;;;;19.30;90.20;;;;;;5073506;28;20273;-42
2022/04/12 13:09:12;;;;;;;;;;;19.40;88.00;;;;;;5073354;28;20339;-43
2022/04/12 13:11:39;;;;;;;;;;;19.50;85.80;;;;;;5073263;28;20268;-44
2022/04/12 13:14:05;;;;;;;;;;;19.60;87.00;;;;;;5072919;28;19912;-43
2022/04/12 13:16:30;;;;;;;;;;;19.60;85.50;;;;;;5072896;28;20000;-42
2022/04/12 13:19:05;;;;;;;;;;;19.30;90.20;;;;;;5073248;28;19956;-44
2022/04/12 13:21:30;;;;;;;;;;;19.00;90.40;;;;;;5073055;28;19951;-42
2022/04/12 13:23:56;;;;;;;;;;;19.10;91.40;;;;;;5071784;28;19952;-43
2022/04/12 13:26:21;;;;;;;;;;;19.40;91.20;;;;;;5073115;28;19921;-42
2022/04/12 13:28:47;;;;;;;;;;;19.50;91.30;;;;;;5072712;28;19908;-43
2022/04/12 13:31:12;;;;;;;;;;;19.10;91.10;;;;;;5071637;28;19919;-41
2022/04/12 13:33:38;;;;;;;;;;;19.20;91.50;;;;;;5072449;28;19920;-43
2022/04/12 13:36:05;;;;;;;;;;;18.90;91.30;;;;;;5071627;28;20421;-43
2022/04/12 13:38:31;;;;;;;;;;;19.00;91.50;;;;;;5072432;28;19961;-42
2022/04/12 13:40:56;;;;;;;;;;;19.00;91.60;;;;;;5072935;28;19951;-42
2022/04/12 13:43:22;;;;;;;;;;;19.20;91.60;;;;;;5072488;28;19943;-43
2022/04/12 13:45:48;;;;;;;;;;;19.30;91.20;;;;;;5072739;28;19912;-44
2022/04/12 13:48:13;;;;;;;;;;;19.20;90.90;;;;;;5072292;28;19909;-43
2022/04/12 13:50:39;;;;;;;;;;;19.10;91.10;;;;;;5072786;28;19908;-44
2022/04/12 13:53:05;;;;;;;;;;;19.30;91.00;;;;;;5072799;28;19963;-42
2022/04/12 13:55:30;;;;;;;;;;;19.60;90.60;;;;;;5072615;28;20355;-43
2022/04/12 13:57:56;;;;;;;;;;;19.50;90.40;;;;;;5072490;28;20374;-42
2022/04/12 14:00:23;;;;;;;;;;;19.50;90.60;;;;;;5072812;28;19908;-42
2022/04/12 14:02:49;;;;;;;;;;;19.60;90.40;;;;;;5072881;28;20240;-43
2022/04/12 14:05:15;;;;;;;;;;;19.90;90.40;;;;;;5072568;28;20291;-47
2022/04/12 14:07:42;;;;;;;;;;;19.80;90.10;;;;;;5072680;28;19913;-43
2022/04/12 14:10:08;;;;;;;;;;;19.80;90.20;;;;;;5072398;28;19938;-42
2022/04/12 14:12:34;;;;;;;;;;;19.80;90.40;;;;;;5072781;28;19936;-44
2022/04/12 14:14:59;;;;;;;;;;;19.80;90.50;;;;;;5076314;28;20007;-42
2022/04/12 14:17:25;;;;;;;;;;;19.50;90.30;;;;;;5076290;28;19915;-41
2022/04/12 14:19:50;;;;;;;;;;;19.30;90.50;;;;;;5076425;28;19998;-43